createdAt,value
2023-03-26T00:07:56.768Z,8.1
2023-03-26T00:17:58.840Z,8.1
2023-03-26T00:28:00.938Z,8.2
2023-03-26T00:38:02.761Z,8.2
2023-03-26T00:48:04.937Z,8.2
2023-03-26T00:58:06.753Z,8.2
2023-03-26T01:08:08.787Z,8.1
2023-03-26T01:18:10.856Z,8.1
2023-03-26T01:28:12.699Z,8.2
2023-03-26T01:38:14.658Z,8.3
2023-03-26T01:48:16.445Z,8.4
2023-03-26T01:58:18.102Z,8.4
2023-03-26T02:28:24.657Z,8.3
2023-03-26T02:38:26.404Z,8.3
2023-03-26T02:48:28.319Z,8.2
2023-03-26T02:58:30.645Z,8
2023-03-26T03:08:33.111Z,7.9
2023-03-26T03:18:34.990Z,7.7
2023-03-26T03:28:37.543Z,7.7
2023-03-26T03:38:40.017Z,7.8
2023-03-26T03:58:43.804Z,7.6
2023-03-26T04:08:45.971Z,7.2
2023-03-26T04:18:48.082Z,6.9
2023-03-26T04:28:49.963Z,7
2023-03-26T04:29:11.897Z,7
2023-03-26T04:38:58.856Z,7.1
2023-03-26T04:49:00.807Z,7.2
2023-03-26T04:59:03.107Z,7.3
2023-03-26T05:09:05.144Z,7.4
2023-03-26T05:19:06.743Z,7.4
2023-03-26T05:29:08.446Z,7.4
2023-03-26T05:39:10.508Z,7.4
2023-03-26T05:49:12.856Z,7.4
2023-03-26T05:59:14.522Z,7.5
2023-03-26T06:09:16.674Z,7.5
2023-03-26T06:19:18.375Z,7.6
2023-03-26T06:29:20.804Z,7.7
2023-03-26T06:39:22.526Z,7.8
2023-03-26T06:59:26.691Z,7.9
2023-03-26T07:09:29.248Z,8
2023-03-26T07:19:31.284Z,8.1
2023-03-26T07:29:33.519Z,8.1
2023-03-26T07:39:35.455Z,8.1
2023-03-26T07:49:37.505Z,8.1
2023-03-26T07:59:39.160Z,8.1
2023-03-26T08:09:41.510Z,8.1
2023-03-26T08:19:43.817Z,8.1
2023-03-26T08:29:45.759Z,8.2
2023-03-26T08:39:48.374Z,8.3
2023-03-26T08:49:50.350Z,8.4
2023-03-26T08:59:52.959Z,8.5
2023-03-26T09:09:54.823Z,8.5
2023-03-26T09:19:57.173Z,8.4
2023-03-26T09:29:59.722Z,8.3
2023-03-26T09:40:01.910Z,8.3
2023-03-26T09:50:03.696Z,8.3
2023-03-26T10:00:06.079Z,8.3
2023-03-26T10:10:08.052Z,8.4
2023-03-26T10:20:10.043Z,8.4
2023-03-26T10:30:12.588Z,8.4
2023-03-26T10:40:14.891Z,8.3
2023-03-26T10:50:17.219Z,8.3
2023-03-26T11:00:19.003Z,8.3
2023-03-26T11:10:20.892Z,8.4
2023-03-26T11:20:23.360Z,8.5
2023-03-26T11:30:25.307Z,8.6
2023-03-26T11:50:29.279Z,8.8
2023-03-26T12:00:31.583Z,8.8
2023-03-26T12:10:33.741Z,8.6
2023-03-26T12:30:38.203Z,8.7
2023-03-26T12:40:40.624Z,8.8
2023-03-26T12:50:42.888Z,8.9
2023-03-26T13:00:45.058Z,9
2023-03-26T13:10:47.165Z,9
2023-03-26T13:20:49.467Z,9.1
2023-03-26T13:40:54.217Z,9.2
2023-03-26T13:50:56.760Z,8.9
2023-03-26T14:00:58.794Z,8.9
2023-03-26T14:11:00.996Z,8.8
2023-03-26T14:21:03.523Z,8.8
2023-03-26T14:31:05.459Z,8.7
2023-03-26T14:41:07.561Z,8.7
2023-03-26T14:51:09.253Z,8.5
2023-03-26T15:01:11.036Z,8.4
2023-03-26T15:11:13.032Z,8.2
2023-03-26T15:21:15.115Z,8.1
2023-03-26T15:31:17.712Z,8
2023-03-26T15:41:19.520Z,7.8
2023-03-26T15:51:21.263Z,7.9
2023-03-26T16:01:23.479Z,7.8
2023-03-26T16:11:25.436Z,7.9
2023-03-26T16:21:30.815Z,7.9
2023-03-26T16:31:36.658Z,7.9
2023-03-26T16:41:32.367Z,7.9
2023-03-26T16:51:34.905Z,7.9
2023-03-26T17:01:37.620Z,7.8
2023-03-26T17:11:39.416Z,7.8
2023-03-26T17:21:45.685Z,7.7
2023-03-26T17:31:43.735Z,7.6
2023-03-26T17:41:45.887Z,7.4
2023-03-26T17:51:47.703Z,7.3
2023-03-26T18:01:49.770Z,7.2
2023-03-26T18:11:51.592Z,7.1
2023-03-26T18:21:53.492Z,7
2023-03-26T18:31:55.417Z,7
2023-03-26T18:41:57.434Z,7
2023-03-26T18:51:59.032Z,6.9
2023-03-26T19:02:01.667Z,6.8
2023-03-26T19:12:03.880Z,6.8
2023-03-26T19:22:06.093Z,6.7
2023-03-26T19:32:08.547Z,6.7
2023-03-26T19:42:10.670Z,6.6
2023-03-26T19:52:12.687Z,6.5
2023-03-26T20:02:14.818Z,6.3
2023-03-26T20:12:17.216Z,6.1
2023-03-26T20:22:19.451Z,5.9
2023-03-26T20:32:22.654Z,5.8
2023-03-26T20:42:24.260Z,5.6
2023-03-26T20:52:26.732Z,5.3
2023-03-26T21:02:29.330Z,5
2023-03-26T21:12:30.951Z,4.8
2023-03-26T21:22:33.232Z,4.6
2023-03-26T21:32:35.629Z,4.4
2023-03-26T21:42:37.815Z,4.4
2023-03-26T22:02:42.300Z,4.1
2023-03-26T22:12:44.794Z,3.9
2023-03-26T22:22:47.116Z,3.7
2023-03-26T22:32:49.192Z,3.6
2023-03-26T22:42:51.833Z,3.6
2023-03-26T22:52:54.379Z,3.5
2023-03-26T23:02:57.057Z,3.5
2023-03-26T23:12:59.527Z,3.6
2023-03-26T23:23:02.016Z,3.5
2023-03-26T23:33:03.892Z,3.4
2023-03-26T23:43:05.654Z,3.3
2023-03-26T23:53:08.206Z,3.2
